OIIP METAR and TAF | Updated Today

OIIP METAR

Payam International Airport

Observation time: 51 min. ago

OIIP 051900Z 09006KT CAVOK 04/M06 Q1015 A2998

Need help? Read our tutorial on how to read METARs or read the parsed version below.

Payam International Airport (OIIP) METAR

  • Weather conditions on Sun, 05 Feb 2023 19:00:00 +0000 (51 min. ago):
  • Present conditions: Dry
  • Clouds: Clear skies
  • Visibility: Greater than 10 km
  • Wind: 90 degrees at 6 knots
  • Temperature: 4 celsius
  • Dew point: -6 celsius
  • Pressure: 1015 millibars
  • Remarks: None


Useful to know...

OIIP TAF

Payam International Airport

TAF OIIP 051700Z 0518/0603 35008KT 7000 SCT040 BKN100
Observation time: 2:51 hr. ago
Need help? Read our tutorial on how to read TAFs or read the parsed version below.

Parsed version of TAF for Payam International Airport (OIIP)

  • From 05 February at 18:00 UTC, to day 06 of the month at 03:00 UTC
  • Clouds: Scattered at 1219 meters; broken sky at 3048 meters
  • Visibility: 7000 meters
  • Wind: 350 degrees at 8